sensor_id;sensor_type;location;lat;lon;timestamp;pressure;altitude;pressure_sealevel;temperature;humidity
74868;BME280;63419;42.262;12.210;2023-04-03T00:01:29;96564.56;;;12.50;100.00
74868;BME280;63419;42.262;12.210;2023-04-03T00:03:58;96557.44;;;12.42;100.00
74868;BME280;63419;42.262;12.210;2023-04-03T00:06:26;96554.47;;;12.56;100.00
74868;BME280;63419;42.262;12.210;2023-04-03T00:08:58;96554.72;;;12.44;100.00
74868;BME280;63419;42.262;12.210;2023-04-03T00:11:25;96547.25;;;12.41;100.00
74868;BME280;63419;42.262;12.210;2023-04-03T00:13:53;96538.09;;;12.36;100.00
74868;BME280;63419;42.262;12.210;2023-04-03T00:16:21;96533.78;;;12.47;100.00
74868;BME280;63419;42.262;12.210;2023-04-03T00:18:51;96548.75;;;12.43;100.00
74868;BME280;63419;42.262;12.210;2023-04-03T00:21:19;96538.03;;;12.77;100.00
74868;BME280;63419;42.262;12.210;2023-04-03T00:23:46;96540.84;;;12.45;100.00
74868;BME280;63419;42.262;12.210;2023-04-03T00:26:15;96543.03;;;12.49;100.00
74868;BME280;63419;42.262;12.210;2023-04-03T00:28:44;96531.88;;;12.39;100.00
74868;BME280;63419;42.262;12.210;2023-04-03T00:31:15;96529.91;;;12.22;100.00
74868;BME280;63419;42.262;12.210;2023-04-03T00:33:46;96541.97;;;12.62;100.00
74868;BME280;63419;42.262;12.210;2023-04-03T00:36:13;96542.75;;;12.52;100.00
74868;BME280;63419;42.262;12.210;2023-04-03T00:38:41;96537.34;;;12.55;100.00
74868;BME280;63419;42.262;12.210;2023-04-03T00:41:12;96536.06;;;12.40;100.00
74868;BME280;63419;42.262;12.210;2023-04-03T00:43:44;96531.56;;;12.32;100.00
74868;BME280;63419;42.262;12.210;2023-04-03T00:46:12;96530.22;;;12.38;100.00
74868;BME280;63419;42.262;12.210;2023-04-03T00:48:42;96532.97;;;12.75;100.00
74868;BME280;63419;42.262;12.210;2023-04-03T00:51:21;96521.75;;;12.26;100.00
74868;BME280;63419;42.262;12.210;2023-04-03T00:53:55;96523.44;;;12.66;100.00
74868;BME280;63419;42.262;12.210;2023-04-03T00:56:28;96525.06;;;12.57;100.00
74868;BME280;63419;42.262;12.210;2023-04-03T00:59:06;96529.16;;;12.70;100.00
74868;BME280;63419;42.262;12.210;2023-04-03T01:01:36;96514.22;;;12.13;100.00
74868;BME280;63419;42.262;12.210;2023-04-03T01:04:24;96523.72;;;12.73;100.00
74868;BME280;63419;42.262;12.210;2023-04-03T01:06:57;96521.09;;;12.44;100.00
74868;BME280;63419;42.262;12.210;2023-04-03T01:09:29;96522.16;;;12.31;100.00
74868;BME280;63419;42.262;12.210;2023-04-03T01:14:35;96518.81;;;12.70;100.00
74868;BME280;63419;42.262;12.210;2023-04-03T01:17:02;96521.81;;;12.55;100.00
74868;BME280;63419;42.262;12.210;2023-04-03T01:19:31;96522.91;;;12.82;100.00
74868;BME280;63419;42.262;12.210;2023-04-03T01:24:37;96511.72;;;12.72;100.00
74868;BME280;63419;42.262;12.210;2023-04-03T01:27:09;96519.75;;;12.49;100.00
74868;BME280;63419;42.262;12.210;2023-04-03T01:29:41;96516.34;;;12.39;100.00
74868;BME280;63419;42.262;12.210;2023-04-03T01:32:10;96512.22;;;12.36;100.00
74868;BME280;63419;42.262;12.210;2023-04-03T01:34:38;96509.56;;;12.77;100.00
74868;BME280;63419;42.262;12.210;2023-04-03T01:37:05;96501.91;;;12.56;100.00
74868;BME280;63419;42.262;12.210;2023-04-03T01:39:33;96504.72;;;12.33;100.00
74868;BME280;63419;42.262;12.210;2023-04-03T01:42:11;96495.59;;;12.19;100.00
74868;BME280;63419;42.262;12.210;2023-04-03T01:44:39;96510.31;;;12.29;100.00
74868;BME280;63419;42.262;12.210;2023-04-03T01:47:10;96507.56;;;12.21;100.00
74868;BME280;63419;42.262;12.210;2023-04-03T01:49:37;96497.84;;;12.53;100.00
74868;BME280;63419;42.262;12.210;2023-04-03T01:52:05;96502.41;;;12.21;100.00
74868;BME280;63419;42.262;12.210;2023-04-03T01:54:32;96498.38;;;12.67;100.00
74868;BME280;63419;42.262;12.210;2023-04-03T01:57:00;96496.59;;;12.38;100.00
74868;BME280;63419;42.262;12.210;2023-04-03T01:59:27;96497.81;;;12.44;100.00
74868;BME280;63419;42.262;12.210;2023-04-03T02:01:55;96489.25;;;12.43;100.00
74868;BME280;63419;42.262;12.210;2023-04-03T02:04:23;96484.72;;;12.26;100.00
74868;BME280;63419;42.262;12.210;2023-04-03T02:06:52;96476.81;;;12.17;100.00
74868;BME280;63419;42.262;12.210;2023-04-03T02:09:19;96480.38;;;12.36;100.00
74868;BME280;63419;42.262;12.210;2023-04-03T02:11:46;96477.94;;;12.25;100.00
74868;BME280;63419;42.262;12.210;2023-04-03T02:14:14;96481.59;;;12.42;100.00
74868;BME280;63419;42.262;12.210;2023-04-03T02:16:42;96482.41;;;12.42;100.00
74868;BME280;63419;42.262;12.210;2023-04-03T02:19:10;96477.53;;;12.39;100.00
74868;BME280;63419;42.262;12.210;2023-04-03T02:21:37;96474.78;;;12.21;100.00
74868;BME280;63419;42.262;12.210;2023-04-03T02:24:05;96472.19;;;12.21;100.00
74868;BME280;63419;42.262;12.210;2023-04-03T02:26:33;96464.88;;;12.36;100.00
74868;BME280;63419;42.262;12.210;2023-04-03T02:29:03;96469.75;;;12.19;100.00
74868;BME280;63419;42.262;12.210;2023-04-03T02:31:31;96459.41;;;12.29;100.00
74868;BME280;63419;42.262;12.210;2023-04-03T02:33:58;96466.63;;;12.35;100.00
74868;BME280;63419;42.262;12.210;2023-04-03T02:36:26;96461.31;;;12.27;100.00
74868;BME280;63419;42.262;12.210;2023-04-03T02:38:58;96462.66;;;12.22;100.00
74868;BME280;63419;42.262;12.210;2023-04-03T02:41:26;96457.34;;;12.33;100.00
74868;BME280;63419;42.262;12.210;2023-04-03T02:44:02;96458.56;;;12.09;100.00
74868;BME280;63419;42.262;12.210;2023-04-03T02:46:29;96463.34;;;12.14;100.00
74868;BME280;63419;42.262;12.210;2023-04-03T02:48:57;96455.03;;;12.10;100.00
74868;BME280;63419;42.262;12.210;2023-04-03T02:51:25;96450.84;;;12.29;100.00
74868;BME280;63419;42.262;12.210;2023-04-03T02:53:52;96458.69;;;12.08;100.00
74868;BME280;63419;42.262;12.210;2023-04-03T02:56:20;96449.06;;;12.19;100.00
74868;BME280;63419;42.262;12.210;2023-04-03T02:58:48;96460.34;;;12.09;100.00
74868;BME280;63419;42.262;12.210;2023-04-03T03:01:23;96460.22;;;12.10;100.00
74868;BME280;63419;42.262;12.210;2023-04-03T03:03:52;96450.94;;;12.08;100.00
74868;BME280;63419;42.262;12.210;2023-04-03T03:06:22;96451.47;;;12.02;100.00
74868;BME280;63419;42.262;12.210;2023-04-03T03:08:50;96449.59;;;12.33;100.00
74868;BME280;63419;42.262;12.210;2023-04-03T03:11:18;96445.91;;;12.16;100.00
74868;BME280;63419;42.262;12.210;2023-04-03T03:13:48;96446.59;;;12.28;100.00
74868;BME280;63419;42.262;12.210;2023-04-03T03:16:16;96440.31;;;12.11;100.00
74868;BME280;63419;42.262;12.210;2023-04-03T03:18:44;96447.97;;;12.42;100.00
74868;BME280;63419;42.262;12.210;2023-04-03T03:21:12;96444.97;;;12.27;100.00
74868;BME280;63419;42.262;12.210;2023-04-03T03:23:40;96436.25;;;12.28;100.00
74868;BME280;63419;42.262;12.210;2023-04-03T03:26:10;96435.44;;;12.27;100.00
74868;BME280;63419;42.262;12.210;2023-04-03T03:28:39;96437.06;;;12.18;100.00
74868;BME280;63419;42.262;12.210;2023-04-03T03:31:09;96433.25;;;12.42;100.00
74868;BME280;63419;42.262;12.210;2023-04-03T03:33:38;96436.13;;;12.39;100.00
74868;BME280;63419;42.262;12.210;2023-04-03T03:36:06;96429.97;;;12.21;100.00
74868;BME280;63419;42.262;12.210;2023-04-03T03:38:34;96436.50;;;12.15;100.00
74868;BME280;63419;42.262;12.210;2023-04-03T03:41:01;96425.88;;;12.08;100.00
74868;BME280;63419;42.262;12.210;2023-04-03T03:43:29;96427.41;;;12.21;100.00
74868;BME280;63419;42.262;12.210;2023-04-03T03:45:59;96427.53;;;12.09;100.00
74868;BME280;63419;42.262;12.210;2023-04-03T03:48:31;96424.22;;;11.97;100.00
74868;BME280;63419;42.262;12.210;2023-04-03T03:50:59;96421.81;;;12.15;100.00
74868;BME280;63419;42.262;12.210;2023-04-03T03:53:26;96421.66;;;11.97;100.00
74868;BME280;63419;42.262;12.210;2023-04-03T03:55:54;96419.91;;;11.98;100.00
74868;BME280;63419;42.262;12.210;2023-04-03T03:58:22;96420.88;;;12.16;100.00
74868;BME280;63419;42.262;12.210;2023-04-03T04:00:49;96413.66;;;12.20;100.00
74868;BME280;63419;42.262;12.210;2023-04-03T04:03:17;96419.78;;;12.19;100.00
74868;BME280;63419;42.262;12.210;2023-04-03T04:05:45;96414.19;;;12.04;100.00
74868;BME280;63419;42.262;12.210;2023-04-03T04:08:12;96414.53;;;11.80;100.00
74868;BME280;63419;42.262;12.210;2023-04-03T04:10:44;96415.28;;;12.11;100.00
74868;BME280;63419;42.262;12.210;2023-04-03T04:13:16;96408.19;;;12.04;100.00
74868;BME280;63419;42.262;12.210;2023-04-03T04:15:44;96404.38;;;11.98;100.00
74868;BME280;63419;42.262;12.210;2023-04-03T04:18:11;96407.66;;;12.00;100.00
74868;BME280;63419;42.262;12.210;2023-04-03T04:20:39;96411.72;;;11.93;100.00
74868;BME280;63419;42.262;12.210;2023-04-03T04:23:09;96418.06;;;11.89;100.00
74868;BME280;63419;42.262;12.210;2023-04-03T04:25:37;96408.81;;;11.86;100.00
74868;BME280;63419;42.262;12.210;2023-04-03T04:28:05;96414.44;;;11.91;100.00
74868;BME280;63419;42.262;12.210;2023-04-03T04:30:33;96402.31;;;11.92;100.00
74868;BME280;63419;42.262;12.210;2023-04-03T04:33:00;96404.53;;;12.16;100.00
74868;BME280;63419;42.262;12.210;2023-04-03T04:35:28;96401.88;;;11.87;100.00
74868;BME280;63419;42.262;12.210;2023-04-03T04:37:56;96405.38;;;11.76;100.00
74868;BME280;63419;42.262;12.210;2023-04-03T04:40:24;96402.16;;;11.84;100.00
74868;BME280;63419;42.262;12.210;2023-04-03T04:42:54;96403.44;;;12.09;100.00
74868;BME280;63419;42.262;12.210;2023-04-03T04:45:25;96387.41;;;11.74;100.00
74868;BME280;63419;42.262;12.210;2023-04-03T04:47:55;96394.03;;;11.98;100.00
74868;BME280;63419;42.262;12.210;2023-04-03T04:50:23;96399.72;;;11.92;100.00
74868;BME280;63419;42.262;12.210;2023-04-03T04:52:51;96404.38;;;12.08;100.00
74868;BME280;63419;42.262;12.210;2023-04-03T04:55:18;96402.47;;;12.00;100.00
74868;BME280;63419;42.262;12.210;2023-04-03T04:57:47;96401.13;;;12.06;100.00
74868;BME280;63419;42.262;12.210;2023-04-03T05:00:15;96402.06;;;12.05;100.00
74868;BME280;63419;42.262;12.210;2023-04-03T05:02:44;96392.06;;;11.80;100.00
74868;BME280;63419;42.262;12.210;2023-04-03T05:05:11;96388.63;;;12.11;100.00
74868;BME280;63419;42.262;12.210;2023-04-03T05:07:41;96387.78;;;11.91;100.00
74868;BME280;63419;42.262;12.210;2023-04-03T05:10:09;96382.88;;;12.07;100.00
74868;BME280;63419;42.262;12.210;2023-04-03T05:12:45;96387.78;;;12.20;100.00
74868;BME280;63419;42.262;12.210;2023-04-03T05:15:21;96382.31;;;11.94;100.00
74868;BME280;63419;42.262;12.210;2023-04-03T05:18:00;96389.16;;;12.34;100.00
74868;BME280;63419;42.262;12.210;2023-04-03T05:20:34;96390.50;;;12.18;100.00
74868;BME280;63419;42.262;12.210;2023-04-03T05:23:06;96391.88;;;12.23;100.00
74868;BME280;63419;42.262;12.210;2023-04-03T05:25:47;96391.72;;;12.44;100.00
74868;BME280;63419;42.262;12.210;2023-04-03T05:28:22;96396.50;;;12.48;100.00
74868;BME280;63419;42.262;12.210;2023-04-03T05:30:55;96396.78;;;12.45;100.00
74868;BME280;63419;42.262;12.210;2023-04-03T05:33:27;96395.69;;;12.28;100.00
74868;BME280;63419;42.262;12.210;2023-04-03T05:36:07;96406.84;;;12.38;100.00
74868;BME280;63419;42.262;12.210;2023-04-03T05:38:35;96401.25;;;12.63;100.00
74868;BME280;63419;42.262;12.210;2023-04-03T05:41:02;96401.66;;;12.38;100.00
74868;BME280;63419;42.262;12.210;2023-04-03T05:43:30;96406.03;;;12.38;100.00
74868;BME280;63419;42.262;12.210;2023-04-03T05:46:17;96406.41;;;12.72;100.00
74868;BME280;63419;42.262;12.210;2023-04-03T05:49:16;96412.56;;;12.62;100.00
74868;BME280;63419;42.262;12.210;2023-04-03T05:51:51;96406.31;;;12.64;100.00
74868;BME280;63419;42.262;12.210;2023-04-03T05:54:47;96405.72;;;12.90;100.00
74868;BME280;63419;42.262;12.210;2023-04-03T05:57:16;96413.03;;;13.04;100.00
74868;BME280;63419;42.262;12.210;2023-04-03T05:59:57;96409.22;;;13.08;100.00
74868;BME280;63419;42.262;12.210;2023-04-03T06:02:30;96408.28;;;13.47;100.00
74868;BME280;63419;42.262;12.210;2023-04-03T06:04:58;96419.63;;;13.46;100.00
74868;BME280;63419;42.262;12.210;2023-04-03T06:07:28;96419.06;;;13.05;100.00
74868;BME280;63419;42.262;12.210;2023-04-03T06:09:57;96408.47;;;13.26;100.00
74868;BME280;63419;42.262;12.210;2023-04-03T06:12:27;96420.19;;;13.30;100.00
74868;BME280;63419;42.262;12.210;2023-04-03T06:15:05;96417.91;;;13.64;100.00
74868;BME280;63419;42.262;12.210;2023-04-03T06:17:33;96426.00;;;13.51;100.00
74868;BME280;63419;42.262;12.210;2023-04-03T06:20:09;96421.31;;;13.37;100.00
74868;BME280;63419;42.262;12.210;2023-04-03T06:22:45;96430.78;;;13.84;100.00
74868;BME280;63419;42.262;12.210;2023-04-03T06:25:12;96422.59;;;13.79;100.00
74868;BME280;63419;42.262;12.210;2023-04-03T06:27:43;96420.81;;;14.07;100.00
74868;BME280;63419;42.262;12.210;2023-04-03T06:30:10;96423.41;;;14.25;100.00
74868;BME280;63419;42.262;12.210;2023-04-03T06:32:38;96426.88;;;13.98;100.00
74868;BME280;63419;42.262;12.210;2023-04-03T06:35:12;96431.72;;;13.83;100.00
74868;BME280;63419;42.262;12.210;2023-04-03T06:37:41;96431.34;;;13.78;100.00
74868;BME280;63419;42.262;12.210;2023-04-03T06:40:22;96425.00;;;14.08;100.00
74868;BME280;63419;42.262;12.210;2023-04-03T06:42:55;96430.06;;;14.27;100.00
74868;BME280;63419;42.262;12.210;2023-04-03T06:45:24;96432.72;;;14.63;100.00
74868;BME280;63419;42.262;12.210;2023-04-03T06:47:55;96425.50;;;14.21;100.00
74868;BME280;63419;42.262;12.210;2023-04-03T06:50:29;96432.28;;;14.22;100.00
74868;BME280;63419;42.262;12.210;2023-04-03T06:53:02;96433.00;;;14.60;100.00
74868;BME280;63419;42.262;12.210;2023-04-03T06:55:32;96424.41;;;14.60;100.00
74868;BME280;63419;42.262;12.210;2023-04-03T06:58:11;96428.72;;;14.05;100.00
74868;BME280;63419;42.262;12.210;2023-04-03T07:00:38;96436.00;;;14.20;100.00
74868;BME280;63419;42.262;12.210;2023-04-03T07:03:11;96436.91;;;14.11;100.00
74868;BME280;63419;42.262;12.210;2023-04-03T07:05:52;96437.66;;;14.57;100.00
74868;BME280;63419;42.262;12.210;2023-04-03T07:08:21;96446.78;;;14.43;100.00
74868;BME280;63419;42.262;12.210;2023-04-03T07:10:55;96436.31;;;14.35;100.00
74868;BME280;63419;42.262;12.210;2023-04-03T07:13:28;96442.75;;;14.48;100.00
74868;BME280;63419;42.262;12.210;2023-04-03T07:15:56;96441.34;;;14.36;100.00
74868;BME280;63419;42.262;12.210;2023-04-03T07:18:28;96442.03;;;14.56;100.00
74868;BME280;63419;42.262;12.210;2023-04-03T07:20:59;96443.06;;;14.45;100.00
74868;BME280;63419;42.262;12.210;2023-04-03T07:23:27;96440.66;;;14.62;100.00
74868;BME280;63419;42.262;12.210;2023-04-03T07:25:55;96448.81;;;14.67;100.00
74868;BME280;63419;42.262;12.210;2023-04-03T07:28:27;96446.84;;;14.87;100.00
74868;BME280;63419;42.262;12.210;2023-04-03T07:31:03;96433.38;;;14.47;100.00
74868;BME280;63419;42.262;12.210;2023-04-03T07:33:40;96433.75;;;14.71;100.00
74868;BME280;63419;42.262;12.210;2023-04-03T07:36:16;96436.84;;;14.56;100.00
74868;BME280;63419;42.262;12.210;2023-04-03T07:38:48;96443.56;;;15.03;100.00
74868;BME280;63419;42.262;12.210;2023-04-03T07:41:21;96437.09;;;15.07;100.00
74868;BME280;63419;42.262;12.210;2023-04-03T07:43:53;96427.66;;;14.80;100.00
74868;BME280;63419;42.262;12.210;2023-04-03T07:46:29;96447.41;;;15.17;100.00
74868;BME280;63419;42.262;12.210;2023-04-03T07:49:01;96444.19;;;14.79;100.00
74868;BME280;63419;42.262;12.210;2023-04-03T07:51:29;96439.84;;;15.32;100.00
74868;BME280;63419;42.262;12.210;2023-04-03T07:53:57;96442.19;;;14.91;100.00
74868;BME280;63419;42.262;12.210;2023-04-03T07:56:27;96433.28;;;15.19;100.00
74868;BME280;63419;42.262;12.210;2023-04-03T07:58:58;96438.38;;;15.03;100.00
74868;BME280;63419;42.262;12.210;2023-04-03T08:01:26;96421.22;;;15.18;100.00
74868;BME280;63419;42.262;12.210;2023-04-03T08:03:54;96435.38;;;15.50;100.00
74868;BME280;63419;42.262;12.210;2023-04-03T08:06:30;96437.88;;;15.94;100.00
74868;BME280;63419;42.262;12.210;2023-04-03T08:09:14;96431.25;;;15.74;100.00
74868;BME280;63419;42.262;12.210;2023-04-03T08:11:50;96445.47;;;15.88;100.00
74868;BME280;63419;42.262;12.210;2023-04-03T08:14:23;96437.00;;;15.77;100.00
74868;BME280;63419;42.262;12.210;2023-04-03T08:16:53;96437.25;;;15.32;100.00
74868;BME280;63419;42.262;12.210;2023-04-03T08:19:20;96449.53;;;15.82;100.00
74868;BME280;63419;42.262;12.210;2023-04-03T08:21:54;96448.81;;;15.72;100.00
74868;BME280;63419;42.262;12.210;2023-04-03T08:24:38;96445.19;;;15.56;100.00
74868;BME280;63419;42.262;12.210;2023-04-03T08:27:25;96438.19;;;15.91;100.00
74868;BME280;63419;42.262;12.210;2023-04-03T08:29:58;96431.47;;;15.80;100.00
74868;BME280;63419;42.262;12.210;2023-04-03T08:32:34;96436.81;;;15.45;100.00
74868;BME280;63419;42.262;12.210;2023-04-03T08:35:07;96435.13;;;15.70;100.00
74868;BME280;63419;42.262;12.210;2023-04-03T08:37:41;96439.25;;;16.15;100.00
74868;BME280;63419;42.262;12.210;2023-04-03T08:40:16;96442.13;;;16.04;100.00
74868;BME280;63419;42.262;12.210;2023-04-03T08:43:25;96438.94;;;16.34;100.00
74868;BME280;63419;42.262;12.210;2023-04-03T08:46:04;96437.34;;;16.66;100.00
74868;BME280;63419;42.262;12.210;2023-04-03T08:48:40;96437.34;;;16.50;100.00
74868;BME280;63419;42.262;12.210;2023-04-03T08:51:19;96433.09;;;16.73;100.00
74868;BME280;63419;42.262;12.210;2023-04-03T08:54:04;96438.34;;;16.98;100.00
74868;BME280;63419;42.262;12.210;2023-04-03T08:56:40;96433.44;;;17.03;100.00
74868;BME280;63419;42.262;12.210;2023-04-03T08:59:18;96433.44;;;17.03;100.00
74868;BME280;63419;42.262;12.210;2023-04-03T09:01:49;96434.59;;;16.84;100.00
74868;BME280;63419;42.262;12.210;2023-04-03T09:04:21;96428.84;;;17.38;100.00
74868;BME280;63419;42.262;12.210;2023-04-03T09:07:10;96436.13;;;17.43;100.00
74868;BME280;63419;42.262;12.210;2023-04-03T09:09:51;96429.41;;;17.57;100.00
74868;BME280;63419;42.262;12.210;2023-04-03T09:12:51;96435.16;;;17.44;100.00
74868;BME280;63419;42.262;12.210;2023-04-03T09:15:26;96439.00;;;16.84;100.00
74868;BME280;63419;42.262;12.210;2023-04-03T09:18:28;96437.63;;;17.45;100.00
74868;BME280;63419;42.262;12.210;2023-04-03T09:23:53;96437.25;;;17.57;100.00
74868;BME280;63419;42.262;12.210;2023-04-03T09:26:51;96430.66;;;18.17;100.00
74868;BME280;63419;42.262;12.210;2023-04-03T09:29:23;96428.91;;;18.32;100.00
74868;BME280;63419;42.262;12.210;2023-04-03T09:32:02;96426.88;;;18.19;100.00
74868;BME280;63419;42.262;12.210;2023-04-03T09:34:43;96429.28;;;18.52;100.00
74868;BME280;63419;42.262;12.210;2023-04-03T09:37:45;96424.91;;;17.82;100.00
74868;BME280;63419;42.262;12.210;2023-04-03T09:40:35;96421.50;;;18.44;100.00
74868;BME280;63419;42.262;12.210;2023-04-03T09:43:30;96420.78;;;18.04;98.70
74868;BME280;63419;42.262;12.210;2023-04-03T09:46:33;96419.81;;;18.51;100.00
74868;BME280;63419;42.262;12.210;2023-04-03T09:49:05;96421.84;;;18.87;97.03
74868;BME280;63419;42.262;12.210;2023-04-03T09:51:37;96428.06;;;18.40;99.29
74868;BME280;63419;42.262;12.210;2023-04-03T09:54:35;96409.19;;;18.30;97.25
74868;BME280;63419;42.262;12.210;2023-04-03T09:57:13;96422.84;;;18.86;92.45
74868;BME280;63419;42.262;12.210;2023-04-03T10:00:36;96419.63;;;18.30;91.66
74868;BME280;63419;42.262;12.210;2023-04-03T10:03:28;96414.84;;;18.10;92.04
74868;BME280;63419;42.262;12.210;2023-04-03T10:06:50;96413.66;;;18.67;90.05
74868;BME280;63419;42.262;12.210;2023-04-03T10:09:56;96401.22;;;18.92;86.68
74868;BME280;63419;42.262;12.210;2023-04-03T10:12:32;96408.84;;;18.79;83.43
74868;BME280;63419;42.262;12.210;2023-04-03T10:15:02;96411.38;;;18.87;81.94
74868;BME280;63419;42.262;12.210;2023-04-03T10:20:46;96397.09;;;18.52;82.34
74868;BME280;63419;42.262;12.210;2023-04-03T10:23:59;96392.50;;;18.77;82.77
74868;BME280;63419;42.262;12.210;2023-04-03T10:26:58;96391.78;;;19.21;79.24
74868;BME280;63419;42.262;12.210;2023-04-03T10:35:41;96379.13;;;19.69;72.05
74868;BME280;63419;42.262;12.210;2023-04-03T10:38:41;96380.66;;;19.78;73.45
74868;BME280;63419;42.262;12.210;2023-04-03T10:41:51;96379.75;;;20.23;69.06
74868;BME280;63419;42.262;12.210;2023-04-03T10:57:09;96375.00;;;19.30;69.98
74868;BME280;63419;42.262;12.210;2023-04-03T11:02:52;96355.44;;;20.07;69.45
74868;BME280;63419;42.262;12.210;2023-04-03T11:05:42;96361.47;;;21.01;66.50
74868;BME280;63419;42.262;12.210;2023-04-03T11:11:03;96360.06;;;21.05;66.62
74868;BME280;63419;42.262;12.210;2023-04-03T11:16:49;96353.59;;;21.36;65.46
74868;BME280;63419;42.262;12.210;2023-04-03T11:19:48;96349.72;;;22.28;63.17
74868;BME280;63419;42.262;12.210;2023-04-03T11:22:34;96346.56;;;21.43;62.93
74868;BME280;63419;42.262;12.210;2023-04-03T11:27:58;96344.69;;;20.45;60.75
74868;BME280;63419;42.262;12.210;2023-04-03T11:36:55;96333.41;;;21.36;59.74
74868;BME280;63419;42.262;12.210;2023-04-03T11:39:33;96347.47;;;22.98;58.44
74868;BME280;63419;42.262;12.210;2023-04-03T11:45:16;96334.16;;;22.80;56.71
74868;BME280;63419;42.262;12.210;2023-04-03T11:47:51;96330.09;;;22.91;56.14
74868;BME280;63419;42.262;12.210;2023-04-03T11:58:23;96308.25;;;22.23;54.01
74868;BME280;63419;42.262;12.210;2023-04-03T12:01:11;96320.28;;;21.78;54.85
74868;BME280;63419;42.262;12.210;2023-04-03T12:04:11;96313.75;;;22.29;53.68
74868;BME280;63419;42.262;12.210;2023-04-03T12:09:35;96308.31;;;24.51;53.79
74868;BME280;63419;42.262;12.210;2023-04-03T12:12:37;96312.25;;;23.19;53.80
74868;BME280;63419;42.262;12.210;2023-04-03T12:15:24;96302.56;;;24.61;52.64
74868;BME280;63419;42.262;12.210;2023-04-03T12:17:56;96296.31;;;24.30;51.00
74868;BME280;63419;42.262;12.210;2023-04-03T12:20:57;96304.53;;;23.83;51.32
74868;BME280;63419;42.262;12.210;2023-04-03T12:23:26;96295.91;;;22.84;51.73
74868;BME280;63419;42.262;12.210;2023-04-03T12:28:42;96288.78;;;23.63;51.59
74868;BME280;63419;42.262;12.210;2023-04-03T12:31:22;96292.63;;;24.06;50.99
74868;BME280;63419;42.262;12.210;2023-04-03T12:39:51;96282.69;;;23.69;49.56
74868;BME280;63419;42.262;12.210;2023-04-03T12:42:26;96274.72;;;23.76;50.02
74868;BME280;63419;42.262;12.210;2023-04-03T12:45:21;96270.72;;;24.81;49.00
74868;BME280;63419;42.262;12.210;2023-04-03T12:47:55;96270.59;;;25.31;48.52
74868;BME280;63419;42.262;12.210;2023-04-03T12:50:33;96258.13;;;23.82;47.54
74868;BME280;63419;42.262;12.210;2023-04-03T12:53:18;96274.13;;;24.12;49.60
74868;BME280;63419;42.262;12.210;2023-04-03T12:55:56;96261.50;;;24.21;49.52
74868;BME280;63419;42.262;12.210;2023-04-03T12:58:28;96261.59;;;24.33;48.96
74868;BME280;63419;42.262;12.210;2023-04-03T13:01:14;96266.59;;;22.67;51.21
74868;BME280;63419;42.262;12.210;2023-04-03T13:03:55;96275.97;;;23.80;50.69
74868;BME280;63419;42.262;12.210;2023-04-03T13:06:44;96269.28;;;24.09;50.23
74868;BME280;63419;42.262;12.210;2023-04-03T13:09:35;96268.03;;;22.70;52.33
74868;BME280;63419;42.262;12.210;2023-04-03T13:12:12;96263.63;;;23.29;54.15
74868;BME280;63419;42.262;12.210;2023-04-03T13:14:56;96264.38;;;23.88;52.39
74868;BME280;63419;42.262;12.210;2023-04-03T13:17:34;96256.66;;;24.18;52.13
74868;BME280;63419;42.262;12.210;2023-04-03T13:23:12;96259.25;;;23.09;53.33
74868;BME280;63419;42.262;12.210;2023-04-03T13:25:51;96254.16;;;23.60;52.35
74868;BME280;63419;42.262;12.210;2023-04-03T13:28:33;96265.75;;;21.80;55.15
74868;BME280;63419;42.262;12.210;2023-04-03T13:31:18;96263.31;;;22.85;53.14
74868;BME280;63419;42.262;12.210;2023-04-03T13:36:38;96266.72;;;21.65;56.01
74868;BME280;63419;42.262;12.210;2023-04-03T13:41:53;96250.03;;;22.60;55.77
74868;BME280;63419;42.262;12.210;2023-04-03T13:52:28;96257.91;;;22.13;54.83
74868;BME280;63419;42.262;12.210;2023-04-03T13:55:14;96269.03;;;22.22;55.23
74868;BME280;63419;42.262;12.210;2023-04-03T13:58:02;96250.28;;;22.32;56.02
74868;BME280;63419;42.262;12.210;2023-04-03T14:00:48;96256.91;;;22.61;54.38
74868;BME280;63419;42.262;12.210;2023-04-03T14:03:24;96251.41;;;22.96;52.90
74868;BME280;63419;42.262;12.210;2023-04-03T14:06:32;96239.31;;;22.55;53.77
74868;BME280;63419;42.262;12.210;2023-04-03T14:08:53;96228.03;;;23.97;53.24
74868;BME280;63419;42.262;12.210;2023-04-03T14:11:29;96251.09;;;22.32;52.84
74868;BME280;63419;42.262;12.210;2023-04-03T14:16:45;96255.97;;;19.71;56.69
74868;BME280;63419;42.262;12.210;2023-04-03T14:19:24;96227.53;;;21.02;56.17
74868;BME280;63419;42.262;12.210;2023-04-03T14:21:56;96247.00;;;21.21;54.38
74868;BME280;63419;42.262;12.210;2023-04-03T14:24:35;96247.38;;;20.48;57.01
74868;BME280;63419;42.262;12.210;2023-04-03T14:27:15;96242.13;;;21.18;54.21
74868;BME280;63419;42.262;12.210;2023-04-03T14:29:43;96261.16;;;22.09;55.73
74868;BME280;63419;42.262;12.210;2023-04-03T14:32:15;96240.38;;;20.90;55.78
74868;BME280;63419;42.262;12.210;2023-04-03T14:34:48;96247.16;;;21.13;55.87
74868;BME280;63419;42.262;12.210;2023-04-03T14:37:23;96231.56;;;20.98;55.61
74868;BME280;63419;42.262;12.210;2023-04-03T14:39:56;96231.41;;;21.68;53.87
74868;BME280;63419;42.262;12.210;2023-04-03T14:42:31;96241.75;;;21.28;52.39
74868;BME280;63419;42.262;12.210;2023-04-03T14:45:05;96226.94;;;21.62;53.36
74868;BME280;63419;42.262;12.210;2023-04-03T14:50:24;96241.16;;;22.08;53.44
74868;BME280;63419;42.262;12.210;2023-04-03T14:53:01;96239.69;;;21.72;52.65
74868;BME280;63419;42.262;12.210;2023-04-03T14:55:29;96240.16;;;21.27;53.84